Meiou Maru — JD4206 — position and weather

sailwx.info

Track history (hours):
 
Tides and Currents Weather Stations Pressure Air Temp Water Temp Dewpoint Dewpoint Depression Visibility Wind Speed Wind Dir Waves Ship Positions

Meiou Maru

Last reported at 2017-Oct-16 05:24 UTC. Time now 2017-Oct-17 05:47 UTC.
Position N 35°31' E 139°59'.

Length 65 m.

Type: Tanker. MMSI: 431009805.

Date/timePositionNaut miles runAvg speedWind from/ knotsBaromVisibWave heightAir tempDewpointWater temp
2017-Oct-16 05:24N 35°31' E 139°59'5 1.1
2017-Oct-16 00:41N 35°29' E 139°53'210.3
2017-Oct-16 00:30N 35°28' E 139°51'510.4
2017-Oct-16 00:00N 35°25' E 139°47'510.6
2017-Oct-15 23:31N 35°20' E 139°44'5 9.9
2017-Oct-15 23:01N 35°15' E 139°47'5 9.8
2017-Oct-15 22:30N 35°10' E 139°47'510.7
2017-Oct-15 22:00N 35°05' E 139°45'510.6
2017-Oct-15 21:30N 35°02' E 139°40'611.3
2017-Oct-15 20:58N 34°59' E 139°33'  
2017-Oct-13 04:23N 34°37' E 135°01'513.0
2017-Oct-13 04:00N 34°36' E 135°07'612.5
2017-Oct-13 03:30N 34°36' E 135°15'612.1
2017-Oct-13 03:01N 34°37' E 135°22'3 1.1
2017-Oct-13 00:01N 34°39' E 135°25'0 0.0
2017-Oct-12 23:53N 34°39' E 135°25'0 0.0
2017-Oct-12 23:30N 34°39' E 135°25'0 0.0
2017-Oct-12 23:00N 34°39' E 135°25'3 5.2
2017-Oct-12 22:30N 34°38' E 135°23'4 7.7
2017-Oct-12 22:00N 34°36' E 135°18'0 0.0
2017-Oct-12 21:31N 34°36' E 135°18'0 0.0
2017-Oct-12 21:00N 34°36' E 135°18'0 0.0
2017-Oct-12 20:30N 34°36' E 135°18'0 0.0
2017-Oct-12 20:00N 34°36' E 135°18'0 0.0
2017-Oct-12 19:30N 34°36' E 135°18'0 0.0
2017-Oct-12 19:00N 34°36' E 135°18'0 0.0
2017-Oct-12 18:30N 34°36' E 135°18'0 0.0
2017-Oct-12 18:00N 34°36' E 135°18'0 0.0
2017-Oct-12 17:30N 34°36' E 135°18'0 0.0
2017-Oct-12 16:59N 34°36' E 135°18'0 0.0
2017-Oct-12 16:30N 34°36' E 135°18'0 0.0
2017-Oct-12 16:00N 34°36' E 135°18'0 0.0
2017-Oct-12 15:30N 34°36' E 135°18'0 0.0
2017-Oct-12 15:00N 34°36' E 135°18'0 0.0
2017-Oct-12 14:30N 34°36' E 135°18'0 0.0
2017-Oct-12 14:00N 34°36' E 135°18'0 0.0
2017-Oct-12 13:30N 34°36' E 135°18'0 0.0
2017-Oct-12 13:01N 34°36' E 135°18'0 0.0
2017-Oct-12 12:30N 34°36' E 135°18'0 0.0
2017-Oct-12 12:00N 34°36' E 135°18'0 0.0
2017-Oct-12 11:30N 34°36' E 135°18'0 0.0
2017-Oct-12 11:00N 34°36' E 135°18'3 6.6
2017-Oct-12 10:30N 34°33' E 135°16'611.0
2017-Oct-12 09:58N 34°28' E 135°12'1510.3
2017-Oct-12 08:29N 34°15' E 135°03'511.1
2017-Oct-12 08:00N 34°10' E 135°02'611.0
2017-Oct-12 07:30N 34°05' E 135°01'262 5.1
2017-Oct-10 04:14N 35°34' E 140°01'3 8.1
2017-Oct-10 03:49N 35°31' E 139°58'3 9.9
2017-Oct-10 03:30N 35°29' E 139°55'3 0.7
2017-Oct-09 23:13N 35°27' E 139°58'3 8.1
2017-Oct-09 22:53N 35°29' E 139°56'0 0.0
2017-Oct-09 22:23N 35°29' E 139°56'8 1.9
2017-Oct-09 18:13N 35°25' E 139°47'611.5
2017-Oct-09 17:40N 35°19' E 139°44'210.9
2017-Oct-09 17:30N 35°18' E 139°45'510.4
2017-Oct-09 17:00N 35°13' E 139°47'510.7
2017-Oct-09 16:30N 35°07' E 139°46'510.8
2017-Oct-09 16:00N 35°03' E 139°43'611.2
2017-Oct-09 15:30N 34°60' E 139°37'611.8
2017-Oct-09 14:58N 34°56' E 139°31'229 9.2
2017-Oct-08 14:05N 34°03' E 134°60'211.2
2017-Oct-08 13:53N 34°05' E 134°59'411.2
2017-Oct-08 13:30N 34°10' E 134°59'810.8
2017-Oct-08 12:48N 34°17' E 134°59'3 9.8
2017-Oct-08 12:27N 34°21' E 134°59'510.4
2017-Oct-08 12:00N 34°25' E 135°00'510.1
2017-Oct-08 11:30N 34°30' E 135°02'5 9.6
2017-Oct-08 11:00N 34°35' E 135°03'5 7.7
2017-Oct-08 10:23N 34°36' E 134°58'1 0.0
2017-Oct-07 02:58N 34°37' E 134°57'511.3
2017-Oct-07 02:30N 34°36' E 135°04'612.6
2017-Oct-07 02:00N 34°36' E 135°11'612.1
2017-Oct-07 01:30N 34°39' E 135°18'1 1.7
2017-Oct-07 01:00N 34°40' E 135°17'0 0.0
2017-Oct-07 00:30N 34°40' E 135°17'0 0.0
2017-Oct-07 00:00N 34°40' E 135°17'0 0.0
2017-Oct-06 23:30N 34°40' E 135°17'0 0.0
2017-Oct-06 23:00N 34°40' E 135°17'0 0.0
2017-Oct-06 22:30N 34°40' E 135°17'0 0.0
2017-Oct-06 22:00N 34°40' E 135°17'2 4.7
2017-Oct-06 21:30N 34°39' E 135°20'0 0.0
2017-Oct-06 21:00N 34°39' E 135°20'0 0.0
2017-Oct-06 20:30N 34°39' E 135°20'0 0.0
2017-Oct-06 20:00N 34°39' E 135°20'0 0.0
2017-Oct-06 19:30N 34°39' E 135°20'0 0.0
2017-Oct-06 19:00N 34°39' E 135°20'0 0.0
2017-Oct-06 18:30N 34°39' E 135°20'0 0.0
2017-Oct-06 18:00N 34°39' E 135°20'0 0.0
2017-Oct-06 17:30N 34°39' E 135°20'0 0.0
2017-Oct-06 17:00N 34°39' E 135°20'0 0.0
2017-Oct-06 16:30N 34°39' E 135°20'0 0.0
2017-Oct-06 16:00N 34°39' E 135°20'0 0.0
2017-Oct-06 15:30N 34°39' E 135°20'0 0.0
2017-Oct-06 15:00N 34°39' E 135°20'0 0.0
2017-Oct-06 14:30N 34°39' E 135°20'0 0.0
2017-Oct-06 14:00N 34°39' E 135°20'0 0.0
2017-Oct-06 13:30N 34°39' E 135°20'0 0.1
2017-Oct-06 13:00N 34°39' E 135°20'5 9.3
2017-Oct-06 12:30N 34°34' E 135°22'3 6.2
2017-Oct-06 11:59N 34°33' E 135°26'0 0.0
2017-Oct-06 11:30N 34°33' E 135°26'0 0.0
2017-Oct-06 11:00N 34°33' E 135°26'0 0.0
2017-Oct-06 10:30N 34°33' E 135°26'0 0.0
2017-Oct-06 10:00N 34°33' E 135°26'0 0.0
2017-Oct-06 09:30N 34°33' E 135°26'0 0.0
2017-Oct-06 08:59N 34°33' E 135°26'0 0.0
2017-Oct-06 08:27N 34°33' E 135°26'0 0.0
2017-Oct-06 08:00N 34°33' E 135°26'0 0.0
2017-Oct-06 07:30N 34°33' E 135°26'0 0.7
2017-Oct-06 07:00N 34°33' E 135°25'0 0.5
2017-Oct-06 06:30N 34°33' E 135°25'5 9.3
2017-Oct-06 06:00N 34°33' E 135°19'1 2.8
2017-Oct-06 05:30N 34°33' E 135°18'  
Track history (hours):
 
Tides and Currents Weather Stations Pressure Air Temp Water Temp Dewpoint Dewpoint Depression Visibility Wind Speed Wind Dir Waves Ship Positions

Meiou Maru

Last reported at 2017-Oct-16 05:24 UTC. Time now 2017-Oct-17 05:47 UTC.
Position N 35°31' E 139°59'.

Length 65 m.

Type: Tanker. MMSI: 431009805.

Date/timePositionNaut miles runAvg speedWind from/ knotsBaromVisibWave heightAir tempDewpointWater temp
2017-Oct-16 05:24N 35°31' E 139°59'5 1.1
2017-Oct-16 00:41N 35°29' E 139°53'210.3
2017-Oct-16 00:30N 35°28' E 139°51'510.4
2017-Oct-16 00:00N 35°25' E 139°47'510.6
2017-Oct-15 23:31N 35°20' E 139°44'5 9.9
2017-Oct-15 23:01N 35°15' E 139°47'5 9.8
2017-Oct-15 22:30N 35°10' E 139°47'510.7
2017-Oct-15 22:00N 35°05' E 139°45'510.6
2017-Oct-15 21:30N 35°02' E 139°40'611.3
2017-Oct-15 20:58N 34°59' E 139°33'  
2017-Oct-13 04:23N 34°37' E 135°01'513.0
2017-Oct-13 04:00N 34°36' E 135°07'612.5
2017-Oct-13 03:30N 34°36' E 135°15'612.1
2017-Oct-13 03:01N 34°37' E 135°22'3 1.1
2017-Oct-13 00:01N 34°39' E 135°25'0 0.0
2017-Oct-12 23:53N 34°39' E 135°25'0 0.0
2017-Oct-12 23:30N 34°39' E 135°25'0 0.0
2017-Oct-12 23:00N 34°39' E 135°25'3 5.2
2017-Oct-12 22:30N 34°38' E 135°23'4 7.7
2017-Oct-12 22:00N 34°36' E 135°18'0 0.0
2017-Oct-12 21:31N 34°36' E 135°18'0 0.0
2017-Oct-12 21:00N 34°36' E 135°18'0 0.0
2017-Oct-12 20:30N 34°36' E 135°18'0 0.0
2017-Oct-12 20:00N 34°36' E 135°18'0 0.0
2017-Oct-12 19:30N 34°36' E 135°18'0 0.0
2017-Oct-12 19:00N 34°36' E 135°18'0 0.0
2017-Oct-12 18:30N 34°36' E 135°18'0 0.0
2017-Oct-12 18:00N 34°36' E 135°18'0 0.0
2017-Oct-12 17:30N 34°36' E 135°18'0 0.0
2017-Oct-12 16:59N 34°36' E 135°18'0 0.0
2017-Oct-12 16:30N 34°36' E 135°18'0 0.0
2017-Oct-12 16:00N 34°36' E 135°18'0 0.0
2017-Oct-12 15:30N 34°36' E 135°18'0 0.0
2017-Oct-12 15:00N 34°36' E 135°18'0 0.0
2017-Oct-12 14:30N 34°36' E 135°18'0 0.0
2017-Oct-12 14:00N 34°36' E 135°18'0 0.0
2017-Oct-12 13:30N 34°36' E 135°18'0 0.0
2017-Oct-12 13:01N 34°36' E 135°18'0 0.0
2017-Oct-12 12:30N 34°36' E 135°18'0 0.0
2017-Oct-12 12:00N 34°36' E 135°18'0 0.0
2017-Oct-12 11:30N 34°36' E 135°18'0 0.0
2017-Oct-12 11:00N 34°36' E 135°18'3 6.6
2017-Oct-12 10:30N 34°33' E 135°16'611.0
2017-Oct-12 09:58N 34°28' E 135°12'1510.3
2017-Oct-12 08:29N 34°15' E 135°03'511.1
2017-Oct-12 08:00N 34°10' E 135°02'611.0
2017-Oct-12 07:30N 34°05' E 135°01'262 5.1
2017-Oct-10 04:14N 35°34' E 140°01'3 8.1
2017-Oct-10 03:49N 35°31' E 139°58'3 9.9
2017-Oct-10 03:30N 35°29' E 139°55'3 0.7
2017-Oct-09 23:13N 35°27' E 139°58'3 8.1
2017-Oct-09 22:53N 35°29' E 139°56'0 0.0
2017-Oct-09 22:23N 35°29' E 139°56'8 1.9
2017-Oct-09 18:13N 35°25' E 139°47'611.5
2017-Oct-09 17:40N 35°19' E 139°44'210.9
2017-Oct-09 17:30N 35°18' E 139°45'510.4
2017-Oct-09 17:00N 35°13' E 139°47'510.7
2017-Oct-09 16:30N 35°07' E 139°46'510.8
2017-Oct-09 16:00N 35°03' E 139°43'611.2
2017-Oct-09 15:30N 34°60' E 139°37'611.8
2017-Oct-09 14:58N 34°56' E 139°31'229 9.2
2017-Oct-08 14:05N 34°03' E 134°60'211.2
2017-Oct-08 13:53N 34°05' E 134°59'411.2
2017-Oct-08 13:30N 34°10' E 134°59'810.8
2017-Oct-08 12:48N 34°17' E 134°59'3 9.8
2017-Oct-08 12:27N 34°21' E 134°59'510.4
2017-Oct-08 12:00N 34°25' E 135°00'510.1
2017-Oct-08 11:30N 34°30' E 135°02'5 9.6
2017-Oct-08 11:00N 34°35' E 135°03'5 7.7
2017-Oct-08 10:23N 34°36' E 134°58'1 0.0
2017-Oct-07 02:58N 34°37' E 134°57'511.3
2017-Oct-07 02:30N 34°36' E 135°04'612.6
2017-Oct-07 02:00N 34°36' E 135°11'612.1
2017-Oct-07 01:30N 34°39' E 135°18'1 1.7
2017-Oct-07 01:00N 34°40' E 135°17'0 0.0
2017-Oct-07 00:30N 34°40' E 135°17'0 0.0
2017-Oct-07 00:00N 34°40' E 135°17'0 0.0
2017-Oct-06 23:30N 34°40' E 135°17'0 0.0
2017-Oct-06 23:00N 34°40' E 135°17'0 0.0
2017-Oct-06 22:30N 34°40' E 135°17'0 0.0
2017-Oct-06 22:00N 34°40' E 135°17'2 4.7
2017-Oct-06 21:30N 34°39' E 135°20'0 0.0
2017-Oct-06 21:00N 34°39' E 135°20'0 0.0
2017-Oct-06 20:30N 34°39' E 135°20'0 0.0
2017-Oct-06 20:00N 34°39' E 135°20'0 0.0
2017-Oct-06 19:30N 34°39' E 135°20'0 0.0
2017-Oct-06 19:00N 34°39' E 135°20'0 0.0
2017-Oct-06 18:30N 34°39' E 135°20'0 0.0
2017-Oct-06 18:00N 34°39' E 135°20'0 0.0
2017-Oct-06 17:30N 34°39' E 135°20'0 0.0
2017-Oct-06 17:00N 34°39' E 135°20'0 0.0
2017-Oct-06 16:30N 34°39' E 135°20'0 0.0
2017-Oct-06 16:00N 34°39' E 135°20'0 0.0
2017-Oct-06 15:30N 34°39' E 135°20'0 0.0
2017-Oct-06 15:00N 34°39' E 135°20'0 0.0
2017-Oct-06 14:30N 34°39' E 135°20'0 0.0
2017-Oct-06 14:00N 34°39' E 135°20'0 0.0
2017-Oct-06 13:30N 34°39' E 135°20'0 0.1
2017-Oct-06 13:00N 34°39' E 135°20'5 9.3
2017-Oct-06 12:30N 34°34' E 135°22'3 6.2
2017-Oct-06 11:59N 34°33' E 135°26'0 0.0
2017-Oct-06 11:30N 34°33' E 135°26'0 0.0
2017-Oct-06 11:00N 34°33' E 135°26'0 0.0
2017-Oct-06 10:30N 34°33' E 135°26'0 0.0
2017-Oct-06 10:00N 34°33' E 135°26'0 0.0
2017-Oct-06 09:30N 34°33' E 135°26'0 0.0
2017-Oct-06 08:59N 34°33' E 135°26'0 0.0
2017-Oct-06 08:27N 34°33' E 135°26'0 0.0
2017-Oct-06 08:00N 34°33' E 135°26'0 0.0
2017-Oct-06 07:30N 34°33' E 135°26'0 0.7
2017-Oct-06 07:00N 34°33' E 135°25'0 0.5
2017-Oct-06 06:30N 34°33' E 135°25'5 9.3
2017-Oct-06 06:00N 34°33' E 135°19'1 2.8
2017-Oct-06 05:30N 34°33' E 135°18'  

Dump ship's entire track history